createdAt,value
2023-03-23T00:03:10.104Z,683.00
2023-03-23T00:07:10.338Z,675.00
2023-03-23T00:11:10.107Z,674.00
2023-03-23T00:15:10.018Z,679.00
2023-03-23T00:19:10.417Z,677.00
2023-03-23T00:23:09.960Z,672.00
2023-03-23T00:27:09.906Z,673.00
2023-03-23T00:31:09.821Z,682.00
2023-03-23T00:35:09.980Z,679.00
2023-03-23T00:39:09.914Z,677.00
2023-03-23T00:43:09.889Z,684.00
2023-03-23T00:47:10.888Z,683.00
2023-03-23T00:51:09.833Z,687.00
2023-03-23T00:55:09.793Z,690.00
2023-03-23T00:59:09.781Z,693.00
2023-03-23T01:03:09.912Z,691.00
2023-03-23T01:07:09.779Z,687.00
2023-03-23T01:11:09.733Z,687.00
2023-03-23T01:15:09.648Z,692.00
2023-03-23T01:19:09.633Z,688.00
2023-03-23T01:23:09.597Z,686.00
2023-03-23T01:27:09.569Z,689.00
2023-03-23T01:31:14.543Z,688.00
2023-03-23T01:35:10.538Z,687.00
2023-03-23T01:39:09.541Z,697.00
2023-03-23T01:43:09.456Z,690.00
2023-03-23T01:47:09.457Z,692.00
2023-03-23T01:51:09.403Z,689.00
2023-03-23T01:55:09.379Z,689.00
2023-03-23T01:59:09.356Z,694.00
2023-03-23T02:03:09.273Z,694.00
2023-03-23T02:07:10.268Z,702.00
2023-03-23T02:11:09.266Z,701.00
2023-03-23T02:15:10.224Z,699.00
2023-03-23T02:19:09.164Z,694.00
2023-03-23T02:23:09.390Z,695.00
2023-03-23T02:27:09.326Z,695.00
2023-03-23T02:31:09.385Z,699.00
2023-03-23T02:35:09.318Z,698.00
2023-03-23T02:39:09.238Z,700.00
2023-03-23T02:43:09.212Z,695.00
2023-03-23T02:47:09.226Z,696.00
2023-03-23T02:51:09.099Z,697.00
2023-03-23T02:55:09.122Z,697.00
2023-03-23T02:59:09.043Z,699.00
2023-03-23T03:03:09.191Z,698.00
2023-03-23T03:07:09.191Z,698.00
2023-03-23T03:11:09.061Z,701.00
2023-03-23T03:15:09.091Z,702.00
2023-03-23T03:19:09.004Z,698.00
2023-03-23T03:23:08.979Z,704.00
2023-03-23T03:27:08.950Z,701.00
2023-03-23T03:31:09.182Z,701.00
2023-03-23T03:35:09.156Z,700.00
2023-03-23T03:39:09.075Z,698.00
2023-03-23T03:43:09.039Z,695.00
2023-03-23T03:47:09.041Z,699.00
2023-03-23T03:51:08.987Z,694.00
2023-03-23T03:55:08.979Z,701.00
2023-03-23T03:59:21.848Z,703.00
2023-03-23T04:03:09.896Z,697.00
2023-03-23T04:07:08.934Z,696.00
2023-03-23T04:11:08.939Z,695.00
2023-03-23T04:15:09.900Z,697.00
2023-03-23T04:19:09.880Z,699.00
2023-03-23T04:23:08.860Z,697.00
2023-03-23T04:27:09.820Z,697.00
2023-03-23T04:31:08.835Z,697.00
2023-03-23T04:35:12.709Z,700.00
2023-03-23T04:39:09.999Z,698.00
2023-03-23T04:43:08.998Z,699.00
2023-03-23T04:47:08.978Z,703.00
2023-03-23T04:51:08.894Z,703.00
2023-03-23T04:55:08.843Z,700.00
2023-03-23T04:59:08.818Z,700.00
2023-03-23T05:03:08.792Z,699.00
2023-03-23T05:07:08.738Z,702.00
2023-03-23T05:11:09.074Z,704.00
2023-03-23T05:15:08.685Z,702.00
2023-03-23T05:19:08.661Z,703.00
2023-03-23T05:23:08.581Z,707.00
2023-03-23T05:27:08.587Z,705.00
2023-03-23T05:31:08.999Z,706.00
2023-03-23T05:35:09.490Z,703.00
2023-03-23T05:39:08.438Z,696.00
2023-03-23T05:43:08.424Z,699.00
2023-03-23T05:47:08.357Z,702.00
2023-03-23T05:51:08.345Z,701.00
2023-03-23T05:55:08.386Z,700.00
2023-03-23T05:59:08.427Z,698.00
2023-03-23T06:03:09.533Z,702.00
2023-03-23T06:07:08.727Z,704.00
2023-03-23T06:11:09.004Z,702.00
2023-03-23T06:15:09.081Z,703.00
2023-03-23T06:19:09.197Z,705.00
2023-03-23T06:23:10.032Z,700.00
2023-03-23T06:27:09.592Z,702.00
2023-03-23T06:31:10.642Z,700.00
2023-03-23T06:35:10.299Z,635.00
2023-03-23T06:39:10.098Z,795.00
2023-03-23T06:43:10.389Z,1003.00
2023-03-23T06:47:10.340Z,1109.00
2023-03-23T06:51:10.595Z,1246.00
2023-03-23T06:55:10.355Z,1343.00
2023-03-23T06:59:10.424Z,1481.00
2023-03-23T07:03:10.534Z,1544.00
2023-03-23T07:07:10.986Z,1655.00
2023-03-23T07:11:11.818Z,1793.00
2023-03-23T07:15:10.554Z,1876.00
2023-03-23T07:19:10.727Z,1967.00
2023-03-23T07:23:10.506Z,2033.00
2023-03-23T07:27:10.762Z,2168.00
2023-03-23T07:31:11.066Z,2273.00
2023-03-23T07:35:11.937Z,855.00
2023-03-23T07:39:11.052Z,891.00
2023-03-23T07:43:11.358Z,884.00
2023-03-23T07:47:11.295Z,911.00
2023-03-23T07:51:11.518Z,929.00
2023-03-23T07:55:11.145Z,1048.00
2023-03-23T07:59:12.037Z,1071.00
2023-03-23T08:03:13.106Z,1159.00
2023-03-23T08:07:12.536Z,1141.00
2023-03-23T08:11:12.561Z,1144.00
2023-03-23T08:15:11.642Z,1238.00
2023-03-23T08:19:11.319Z,890.00
2023-03-23T08:23:11.390Z,1014.00
2023-03-23T08:27:11.338Z,1081.00
2023-03-23T08:31:15.488Z,1086.00
2023-03-23T08:35:11.261Z,831.00
2023-03-23T08:39:11.690Z,777.00
2023-03-23T08:43:11.558Z,726.00
2023-03-23T08:47:11.953Z,669.00
2023-03-23T08:51:11.665Z,628.00
2023-03-23T08:55:11.649Z,595.00
2023-03-23T08:59:11.733Z,566.00
2023-03-23T09:03:11.846Z,539.00
2023-03-23T09:07:11.881Z,518.00
2023-03-23T09:11:11.936Z,500.00
2023-03-23T09:15:13.633Z,488.00
2023-03-23T09:19:12.025Z,474.00
2023-03-23T09:23:12.105Z,640.00
2023-03-23T09:27:12.401Z,713.00
2023-03-23T09:31:12.280Z,655.00
2023-03-23T09:35:12.332Z,606.00
2023-03-23T09:39:12.324Z,580.00
2023-03-23T09:43:12.338Z,754.00
2023-03-23T09:47:14.100Z,890.00
2023-03-23T09:51:12.459Z,872.00
2023-03-23T09:55:12.452Z,930.00
2023-03-23T09:59:12.641Z,953.00
2023-03-23T10:03:12.828Z,975.00
2023-03-23T10:07:12.798Z,1078.00
2023-03-23T10:11:13.212Z,1172.00
2023-03-23T10:15:12.576Z,1184.00
2023-03-23T10:19:12.666Z,1222.00
2023-03-23T10:23:12.583Z,1321.00
2023-03-23T10:27:12.543Z,1414.00
2023-03-23T10:31:13.694Z,1415.00
2023-03-23T10:35:12.488Z,1450.00
2023-03-23T10:39:12.412Z,1510.00
2023-03-23T10:43:12.356Z,1515.00
2023-03-23T10:47:12.317Z,1515.00
2023-03-23T10:51:12.338Z,1530.00
2023-03-23T10:55:12.238Z,1411.00
2023-03-23T10:59:12.216Z,1382.00
2023-03-23T11:03:12.162Z,1376.00
2023-03-23T11:07:12.119Z,1369.00
2023-03-23T11:11:12.136Z,1366.00
2023-03-23T11:15:12.146Z,1366.00
2023-03-23T11:19:13.106Z,1368.00
2023-03-23T11:23:14.105Z,1360.00
2023-03-23T11:27:12.513Z,1353.00
2023-03-23T11:31:12.736Z,1356.00
2023-03-23T11:35:18.982Z,1351.00
2023-03-23T11:39:13.744Z,1343.00
2023-03-23T11:43:12.804Z,1337.00
2023-03-23T11:47:13.838Z,1343.00
2023-03-23T11:51:13.168Z,1345.00
2023-03-23T11:55:13.336Z,1341.00
2023-03-23T11:59:13.551Z,1341.00
2023-03-23T12:03:13.730Z,1342.00
2023-03-23T12:07:14.650Z,1339.00
2023-03-23T12:11:14.112Z,1347.00
2023-03-23T12:15:14.333Z,1339.00
2023-03-23T12:19:14.532Z,1340.00
2023-03-23T12:23:15.545Z,1335.00
2023-03-23T12:27:14.920Z,1327.00
2023-03-23T12:31:15.103Z,1321.00
2023-03-23T12:35:15.301Z,1322.00
2023-03-23T12:39:15.523Z,1316.00
2023-03-23T12:43:18.701Z,1316.00
2023-03-23T12:47:15.652Z,1312.00
2023-03-23T12:51:16.154Z,1306.00
2023-03-23T12:55:15.512Z,1309.00
2023-03-23T12:59:15.482Z,1304.00
2023-03-23T13:03:15.520Z,1300.00
2023-03-23T13:07:15.439Z,1306.00
2023-03-23T13:11:15.370Z,1302.00
2023-03-23T13:15:15.349Z,1299.00
2023-03-23T13:19:15.342Z,1294.00
2023-03-23T13:23:15.317Z,1301.00
2023-03-23T13:27:15.269Z,1295.00
2023-03-23T13:31:15.193Z,1289.00
2023-03-23T13:35:15.534Z,1287.00
2023-03-23T13:39:15.244Z,1283.00
2023-03-23T13:43:15.253Z,1287.00
2023-03-23T13:47:15.229Z,1282.00
2023-03-23T13:51:15.239Z,1277.00
2023-03-23T13:55:15.113Z,1276.00
2023-03-23T13:59:15.099Z,1275.00
2023-03-23T14:03:15.174Z,1270.00
2023-03-23T14:07:15.008Z,1269.00
2023-03-23T14:11:15.109Z,1271.00
2023-03-23T14:15:14.911Z,1265.00
2023-03-23T14:19:15.236Z,1268.00
2023-03-23T14:23:15.266Z,1275.00
2023-03-23T14:27:14.819Z,1273.00
2023-03-23T14:31:14.783Z,1281.00
2023-03-23T14:35:14.761Z,1248.00
2023-03-23T14:39:15.711Z,1246.00
2023-03-23T14:43:14.661Z,1239.00
2023-03-23T14:47:14.654Z,1240.00
2023-03-23T14:51:14.625Z,1242.00
2023-03-23T14:55:14.617Z,1236.00
2023-03-23T14:59:14.573Z,1229.00
2023-03-23T15:03:14.469Z,1235.00
2023-03-23T15:07:14.446Z,1248.00
2023-03-23T15:11:14.412Z,1246.00
2023-03-23T15:15:16.222Z,1240.00
2023-03-23T15:19:14.705Z,1238.00
2023-03-23T15:23:14.885Z,1227.00
2023-03-23T15:27:15.018Z,1214.00
2023-03-23T15:31:15.197Z,1146.00
2023-03-23T15:35:15.373Z,1147.00
2023-03-23T15:39:15.509Z,1145.00
2023-03-23T15:43:15.722Z,1143.00
2023-03-23T15:47:15.952Z,1154.00
2023-03-23T15:51:16.166Z,1153.00
2023-03-23T15:55:16.152Z,1153.00
2023-03-23T15:59:16.078Z,1156.00
2023-03-23T16:03:16.112Z,1152.00
2023-03-23T16:07:16.034Z,1150.00
2023-03-23T16:11:15.995Z,1147.00
2023-03-23T16:15:15.918Z,1148.00
2023-03-23T16:19:15.888Z,1140.00
2023-03-23T16:23:16.077Z,1140.00
2023-03-23T16:27:16.832Z,1144.00
2023-03-23T16:31:15.852Z,1147.00
2023-03-23T16:35:16.769Z,1147.00
2023-03-23T16:39:16.043Z,1144.00
2023-03-23T16:43:16.050Z,1145.00
2023-03-23T16:47:16.062Z,1141.00
2023-03-23T16:51:16.079Z,1139.00
2023-03-23T16:55:16.058Z,1136.00
2023-03-23T16:59:16.121Z,1138.00
2023-03-23T17:03:16.373Z,1137.00
2023-03-23T17:07:16.102Z,1138.00
2023-03-23T17:11:16.043Z,1138.00
2023-03-23T17:15:16.071Z,1140.00
2023-03-23T17:19:16.113Z,1142.00
2023-03-23T17:23:16.096Z,1136.00
2023-03-23T17:27:16.189Z,1134.00
2023-03-23T17:31:16.257Z,1133.00
2023-03-23T17:35:16.255Z,1143.00
2023-03-23T17:39:16.245Z,1136.00
2023-03-23T17:43:16.313Z,1132.00
2023-03-23T17:47:16.339Z,1132.00
2023-03-23T17:51:16.380Z,1129.00
2023-03-23T17:55:16.451Z,1129.00
2023-03-23T17:59:17.295Z,1132.00
2023-03-23T18:03:16.543Z,1124.00
2023-03-23T18:07:16.588Z,1114.00
2023-03-23T18:11:16.681Z,1120.00
2023-03-23T18:15:16.754Z,1122.00
2023-03-23T18:19:16.778Z,1121.00
2023-03-23T18:23:16.840Z,1126.00
2023-03-23T18:27:16.926Z,1124.00
2023-03-23T18:31:17.795Z,1120.00
2023-03-23T18:35:17.004Z,1120.00
2023-03-23T18:39:17.110Z,1114.00
2023-03-23T18:43:17.174Z,1114.00
2023-03-23T18:47:17.233Z,1119.00
2023-03-23T18:51:17.281Z,1119.00
2023-03-23T18:55:17.575Z,1114.00
2023-03-23T18:59:17.477Z,1115.00
2023-03-23T19:03:17.567Z,1105.00
2023-03-23T19:07:17.577Z,1105.00
2023-03-23T19:11:17.651Z,1108.00
2023-03-23T19:15:17.719Z,1104.00
2023-03-23T19:19:17.874Z,1109.00
2023-03-23T19:23:17.857Z,1103.00
2023-03-23T19:27:18.001Z,1099.00
2023-03-23T19:31:18.035Z,1104.00
2023-03-23T19:35:18.695Z,1106.00
2023-03-23T19:39:18.206Z,1105.00
2023-03-23T19:43:18.301Z,1101.00
2023-03-23T19:47:18.418Z,1104.00
2023-03-23T19:51:18.776Z,1100.00
2023-03-23T19:55:18.575Z,1098.00
2023-03-23T19:59:18.653Z,1096.00
2023-03-23T20:03:18.847Z,1096.00
2023-03-23T20:07:21.317Z,1094.00
2023-03-23T20:11:18.818Z,1099.00
2023-03-23T20:15:18.759Z,1091.00
2023-03-23T20:19:19.151Z,1094.00
2023-03-23T20:23:18.670Z,1084.00
2023-03-23T20:27:18.679Z,1083.00
2023-03-23T20:31:23.118Z,1078.00
2023-03-23T20:35:19.625Z,1079.00
2023-03-23T20:39:18.925Z,1080.00
2023-03-23T20:43:18.563Z,1084.00
2023-03-23T20:47:18.732Z,1087.00
2023-03-23T20:51:18.813Z,1076.00
2023-03-23T20:55:18.981Z,1077.00
2023-03-23T20:59:19.155Z,1076.00
2023-03-23T21:03:19.455Z,1079.00
2023-03-23T21:07:19.432Z,1082.00
2023-03-23T21:11:20.346Z,1080.00
2023-03-23T21:15:19.771Z,1074.00
2023-03-23T21:19:20.598Z,1076.00
2023-03-23T21:23:20.202Z,1073.00
2023-03-23T21:27:20.218Z,1074.00
2023-03-23T21:31:20.387Z,1074.00
2023-03-23T21:35:20.666Z,1069.00
2023-03-23T21:39:21.225Z,1074.00
2023-03-23T21:43:20.895Z,1073.00
2023-03-23T21:47:21.101Z,1071.00
2023-03-23T21:51:21.353Z,1072.00
2023-03-23T21:55:21.957Z,1073.00
2023-03-23T21:59:24.889Z,1070.00
2023-03-23T22:03:21.649Z,1072.00
2023-03-23T22:07:21.605Z,1070.00
2023-03-23T22:11:21.504Z,1073.00
2023-03-23T22:15:21.528Z,1072.00
2023-03-23T22:19:22.472Z,1067.00
2023-03-23T22:23:21.509Z,1065.00
2023-03-23T22:27:21.672Z,1070.00
2023-03-23T22:31:22.027Z,1062.00
2023-03-23T22:35:22.389Z,1063.00
2023-03-23T22:39:22.467Z,1063.00
2023-03-23T22:43:22.542Z,1063.00
2023-03-23T22:47:22.652Z,1064.00
2023-03-23T22:51:22.466Z,1058.00
2023-03-23T22:55:22.474Z,1062.00
2023-03-23T22:59:22.412Z,1065.00
2023-03-23T23:03:22.368Z,1067.00
2023-03-23T23:07:22.390Z,1063.00
2023-03-23T23:11:22.309Z,1060.00
2023-03-23T23:15:22.257Z,1065.00
2023-03-23T23:19:22.305Z,1064.00
2023-03-23T23:23:22.247Z,1058.00
2023-03-23T23:27:22.631Z,1059.00
2023-03-23T23:31:22.500Z,1059.00
2023-03-23T23:35:22.648Z,1056.00
2023-03-23T23:39:22.118Z,1053.00
2023-03-23T23:43:23.937Z,1060.00
2023-03-23T23:47:21.987Z,1059.00
2023-03-23T23:51:22.132Z,1061.00
2023-03-23T23:55:22.413Z,1059.00
2023-03-23T23:59:22.506Z,1062.00
